createdAt,value
2023-01-19T00:00:50.944Z,6.95
2023-01-19T00:03:17.977Z,7.30
2023-01-19T00:05:45.449Z,7.38
2023-01-19T00:08:15.725Z,7.07
2023-01-19T00:10:45.029Z,6.68
2023-01-19T00:13:11.681Z,7.22
2023-01-19T00:15:38.309Z,6.80
2023-01-19T00:18:05.403Z,7.15
2023-01-19T00:20:35.677Z,6.78
2023-01-19T00:23:04.661Z,7.38
2023-01-19T00:25:31.213Z,7.43
2023-01-19T00:27:59.805Z,6.03
2023-01-19T00:30:27.063Z,6.43
2023-01-19T00:32:53.601Z,7.00
2023-01-19T00:35:20.087Z,6.97
2023-01-19T00:37:46.678Z,6.68
2023-01-19T00:40:14.136Z,6.45
2023-01-19T00:42:41.029Z,6.85
2023-01-19T00:45:09.756Z,7.20
2023-01-19T00:47:36.878Z,6.63
2023-01-19T00:50:03.734Z,6.57
2023-01-19T00:52:30.239Z,6.20
2023-01-19T00:54:56.780Z,6.63
2023-01-19T00:57:23.581Z,6.80
2023-01-19T00:59:50.312Z,6.68
2023-01-19T01:02:17.031Z,6.15
2023-01-19T01:04:43.763Z,6.88
2023-01-19T01:07:10.294Z,6.50
2023-01-19T01:09:36.985Z,7.65
2023-01-19T01:12:03.829Z,6.32
2023-01-19T01:14:32.695Z,6.93
2023-01-19T01:16:59.363Z,6.28
2023-01-19T01:19:26.139Z,6.50
2023-01-19T01:21:52.668Z,6.40
2023-01-19T01:24:19.218Z,6.50
2023-01-19T01:26:46.050Z,7.18
2023-01-19T01:29:12.657Z,6.07
2023-01-19T01:31:39.171Z,6.53
2023-01-19T01:34:05.915Z,5.68
2023-01-19T01:36:33.565Z,6.45
2023-01-19T01:39:00.325Z,6.22
2023-01-19T01:41:27.527Z,7.07
2023-01-19T01:44:02.883Z,5.82
2023-01-19T01:46:31.755Z,5.75
2023-01-19T01:49:10.304Z,6.25
2023-01-19T01:51:48.164Z,5.85
2023-01-19T01:54:28.383Z,5.78
2023-01-19T01:57:00.495Z,6.25
2023-01-19T01:59:34.824Z,6.22
2023-01-19T02:02:23.784Z,5.97
2023-01-19T02:04:54.396Z,6.10
2023-01-19T02:07:51.986Z,6.78
2023-01-19T02:10:37.429Z,6.05
2023-01-19T02:13:22.615Z,6.28
2023-01-19T02:15:51.740Z,7.47
2023-01-19T02:18:20.160Z,6.60
2023-01-19T02:21:19.074Z,7.30
2023-01-19T02:23:50.986Z,6.50
2023-01-19T02:26:24.331Z,6.50
2023-01-19T02:28:57.549Z,6.38
2023-01-19T02:31:25.051Z,7.72
2023-01-19T02:33:52.749Z,7.03
2023-01-19T02:36:23.529Z,5.85
2023-01-19T02:39:01.081Z,6.10
2023-01-19T02:41:34.266Z,6.20
2023-01-19T02:44:01.527Z,6.60
2023-01-19T02:46:28.102Z,6.35
2023-01-19T02:48:59.262Z,6.68
2023-01-19T02:51:27.072Z,5.45
2023-01-19T02:54:20.264Z,6.40
2023-01-19T02:57:01.688Z,5.63
2023-01-19T02:59:41.216Z,6.10
2023-01-19T03:02:26.565Z,6.47
2023-01-19T03:05:34.924Z,6.05
2023-01-19T03:08:29.656Z,6.15
2023-01-19T03:11:09.962Z,5.82
2023-01-19T03:13:49.271Z,6.35
2023-01-19T03:16:25.242Z,7.07
2023-01-19T03:18:55.785Z,6.05
2023-01-19T03:21:26.674Z,5.63
2023-01-19T03:23:58.060Z,6.35
2023-01-19T03:26:30.188Z,5.72
2023-01-19T03:29:00.349Z,5.72
2023-01-19T03:31:31.836Z,5.47
2023-01-19T03:34:03.602Z,6.22
2023-01-19T03:36:35.506Z,5.85
2023-01-19T03:39:05.137Z,6.05
2023-01-19T03:41:34.281Z,5.75
2023-01-19T03:44:01.645Z,6.03
2023-01-19T03:46:28.774Z,5.85
2023-01-19T03:48:57.046Z,4.93
2023-01-19T03:51:23.597Z,5.95
2023-01-19T03:53:50.113Z,5.72
2023-01-19T03:56:23.916Z,5.47
2023-01-19T03:58:51.368Z,5.57
2023-01-19T04:01:22.904Z,5.32
2023-01-19T04:03:50.550Z,6.40
2023-01-19T04:06:17.570Z,5.80
2023-01-19T04:08:44.581Z,6.35
2023-01-19T04:11:11.612Z,6.18
2023-01-19T04:13:38.468Z,5.65
2023-01-19T04:16:05.781Z,4.75
2023-01-19T04:18:34.849Z,5.07
2023-01-19T04:21:03.399Z,5.00
2023-01-19T04:23:30.029Z,5.47
2023-01-19T04:26:00.676Z,5.03
2023-01-19T04:28:27.629Z,5.68
2023-01-19T04:30:54.681Z,4.85
2023-01-19T04:33:22.479Z,5.03
2023-01-19T04:35:52.273Z,5.13
2023-01-19T04:38:20.599Z,4.70
2023-01-19T04:40:49.056Z,5.35
2023-01-19T04:43:15.814Z,4.95
2023-01-19T04:45:44.784Z,5.28
2023-01-19T04:48:12.190Z,5.43
2023-01-19T04:50:39.139Z,4.80
2023-01-19T04:53:05.689Z,5.40
2023-01-19T04:55:32.135Z,6.38
2023-01-19T04:57:58.672Z,5.25
2023-01-19T05:00:26.832Z,4.80
2023-01-19T05:02:53.958Z,5.00
2023-01-19T05:05:20.539Z,4.75
2023-01-19T05:07:47.012Z,4.85
2023-01-19T05:10:13.605Z,5.25
2023-01-19T05:12:40.189Z,4.60
2023-01-19T05:15:07.792Z,4.60
2023-01-19T05:17:34.557Z,5.40
2023-01-19T05:20:01.098Z,5.13
2023-01-19T05:22:27.601Z,5.03
2023-01-19T05:24:54.410Z,3.97
2023-01-19T05:27:21.045Z,5.50
2023-01-19T05:29:47.574Z,4.97
2023-01-19T05:32:14.088Z,3.78
2023-01-19T05:34:40.915Z,3.80
2023-01-19T05:37:07.430Z,4.05
2023-01-19T05:39:34.117Z,4.55
2023-01-19T05:42:00.586Z,4.68
2023-01-19T05:44:27.172Z,3.63
2023-01-19T05:46:53.665Z,4.32
2023-01-19T05:49:20.102Z,4.32
2023-01-19T05:51:46.657Z,4.63
2023-01-19T05:54:15.414Z,4.13
2023-01-19T05:56:42.933Z,5.05
2023-01-19T05:59:10.536Z,3.72
2023-01-19T06:01:39.894Z,4.32
2023-01-19T06:04:06.563Z,3.65
2023-01-19T06:06:33.116Z,4.47
2023-01-19T06:08:59.623Z,4.55
2023-01-19T06:11:26.231Z,3.80
2023-01-19T06:13:52.970Z,4.22
2023-01-19T06:16:19.585Z,3.55
2023-01-19T06:18:46.128Z,3.97
2023-01-19T06:21:14.258Z,3.95
2023-01-19T06:23:40.929Z,3.85
2023-01-19T06:26:07.821Z,3.88
2023-01-19T06:28:34.423Z,4.18
2023-01-19T06:31:01.787Z,3.88
2023-01-19T06:33:28.635Z,3.70
2023-01-19T06:35:55.965Z,3.72
2023-01-19T06:38:22.573Z,3.88
2023-01-19T06:41:00.106Z,3.72
2023-01-19T06:43:26.853Z,3.80
2023-01-19T06:45:53.566Z,4.10
2023-01-19T06:48:20.542Z,3.80
2023-01-19T06:50:48.430Z,3.90
2023-01-19T06:53:16.693Z,3.92
2023-01-19T06:55:44.098Z,3.65
2023-01-19T06:58:11.503Z,3.70
2023-01-19T07:00:38.511Z,4.05
2023-01-19T07:03:09.005Z,3.85
2023-01-19T07:05:36.470Z,3.78
2023-01-19T07:08:03.990Z,4.00
2023-01-19T07:11:25.420Z,4.18
2023-01-19T07:13:17.522Z,3.88
2023-01-19T07:15:44.146Z,3.80
2023-01-19T07:18:10.730Z,3.83
2023-01-19T07:20:40.480Z,3.80
2023-01-19T07:23:06.956Z,3.78
2023-01-19T07:25:33.463Z,3.83
2023-01-19T07:28:00.222Z,3.55
2023-01-19T07:30:27.026Z,4.05
2023-01-19T07:32:58.071Z,3.90
2023-01-19T07:35:25.700Z,3.95
2023-01-19T07:37:52.225Z,3.97
2023-01-19T07:40:18.845Z,3.33
2023-01-19T07:42:49.379Z,3.78
2023-01-19T07:45:17.549Z,3.85
2023-01-19T07:47:48.958Z,3.72
2023-01-19T07:50:17.054Z,4.20
2023-01-19T07:52:44.648Z,3.42
2023-01-19T07:55:11.265Z,3.25
2023-01-19T07:57:37.756Z,3.17
2023-01-19T08:00:05.051Z,4.25
2023-01-19T08:02:34.007Z,3.65
2023-01-19T08:05:00.556Z,3.92
2023-01-19T08:07:27.105Z,4.07
2023-01-19T08:09:53.769Z,4.07
2023-01-19T08:12:20.379Z,3.83
2023-01-19T08:14:46.970Z,3.75
2023-01-19T08:17:13.903Z,3.60
2023-01-19T08:19:41.640Z,3.20
2023-01-19T08:22:08.248Z,3.70
2023-01-19T08:24:34.715Z,4.15
2023-01-19T08:27:02.716Z,3.88
2023-01-19T08:29:33.615Z,3.30
2023-01-19T08:32:02.254Z,3.95
2023-01-19T08:34:32.935Z,4.00
2023-01-19T08:36:59.686Z,4.00
2023-01-19T08:39:27.478Z,4.25
2023-01-19T08:41:54.588Z,4.32
2023-01-19T08:44:21.125Z,4.00
2023-01-19T08:46:48.018Z,3.88
2023-01-19T08:49:14.641Z,4.10
2023-01-19T08:51:41.194Z,3.85
2023-01-19T08:54:07.869Z,3.58
2023-01-19T08:56:34.406Z,4.63
2023-01-19T08:59:09.138Z,4.30
2023-01-19T09:01:37.396Z,3.75
2023-01-19T09:04:04.452Z,4.00
2023-01-19T09:06:31.006Z,3.65
2023-01-19T09:08:57.786Z,3.70
2023-01-19T09:11:24.333Z,3.70
2023-01-19T09:13:51.132Z,3.30
2023-01-19T09:16:18.207Z,3.40
2023-01-19T09:18:45.957Z,3.80
2023-01-19T09:21:12.629Z,3.40
2023-01-19T09:23:39.274Z,3.47
2023-01-19T09:26:06.621Z,4.82
2023-01-19T09:28:33.594Z,4.40
2023-01-19T09:31:05.542Z,4.15
2023-01-19T09:33:32.103Z,3.60
2023-01-19T09:35:58.675Z,4.10
2023-01-19T09:38:25.949Z,3.92
2023-01-19T09:40:57.219Z,4.82
2023-01-19T09:43:41.485Z,3.97
2023-01-19T09:46:32.733Z,3.20
2023-01-19T09:49:05.074Z,2.55
2023-01-19T09:51:41.013Z,2.88
2023-01-19T09:54:17.189Z,3.10
2023-01-19T09:56:51.338Z,3.22
2023-01-19T09:59:26.527Z,3.03
2023-01-19T10:02:11.592Z,3.22
2023-01-19T10:04:42.026Z,3.63
2023-01-19T10:07:35.759Z,3.50
2023-01-19T10:10:23.159Z,4.70
2023-01-19T10:13:24.947Z,2.90
2023-01-19T10:16:31.521Z,3.53
2023-01-19T10:19:08.341Z,3.60
2023-01-19T10:21:41.897Z,3.30
2023-01-19T10:24:21.083Z,3.63
2023-01-19T10:26:52.472Z,3.05
2023-01-19T10:29:25.725Z,3.00
2023-01-19T10:31:55.327Z,2.58
2023-01-19T10:34:23.914Z,2.50
2023-01-19T10:36:58.271Z,3.53
2023-01-19T10:39:24.891Z,2.70
2023-01-19T10:41:53.489Z,2.40
2023-01-19T10:44:25.870Z,3.00
2023-01-19T10:46:54.446Z,2.90
2023-01-19T10:49:31.318Z,2.80
2023-01-19T10:51:59.913Z,2.20
2023-01-19T10:54:29.995Z,2.53
2023-01-19T10:57:03.486Z,2.50
2023-01-19T10:59:31.796Z,2.10
2023-01-19T11:02:17.721Z,2.20
2023-01-19T11:04:47.710Z,2.13
2023-01-19T11:07:21.514Z,2.08
2023-01-19T11:09:49.594Z,2.80
2023-01-19T11:12:18.908Z,2.08
2023-01-19T11:14:46.584Z,1.45
2023-01-19T11:17:31.145Z,1.60
2023-01-19T11:20:02.569Z,1.73
2023-01-19T11:22:33.086Z,2.38
2023-01-19T11:25:04.827Z,2.47
2023-01-19T11:27:34.595Z,2.95
2023-01-19T11:30:10.432Z,2.95
2023-01-19T11:32:37.251Z,2.90
2023-01-19T11:35:37.795Z,2.85
2023-01-19T11:38:18.272Z,2.65
2023-01-19T11:40:59.087Z,3.75
2023-01-19T11:43:39.759Z,3.78
2023-01-19T11:46:15.331Z,3.80
2023-01-19T11:49:02.097Z,3.30
2023-01-19T11:51:35.493Z,4.10
2023-01-19T11:54:07.615Z,3.40
2023-01-19T11:56:35.170Z,3.58
2023-01-19T11:59:02.778Z,3.40
2023-01-19T12:01:34.225Z,3.70
2023-01-19T12:04:19.126Z,3.25
2023-01-19T12:06:51.224Z,3.67
2023-01-19T12:09:22.443Z,3.75
2023-01-19T12:12:08.523Z,3.65
2023-01-19T12:14:41.120Z,3.38
2023-01-19T12:17:16.570Z,1.93
2023-01-19T12:19:53.433Z,1.70
2023-01-19T12:22:23.807Z,1.70
2023-01-19T12:24:58.097Z,1.30
2023-01-19T12:27:44.141Z,1.55
2023-01-19T12:30:23.854Z,1.33
2023-01-19T12:32:53.337Z,1.10
2023-01-19T12:35:57.546Z,1.40
2023-01-19T12:41:20.875Z,0.95
2023-01-19T12:43:49.312Z,0.80
2023-01-19T12:46:30.630Z,1.00
2023-01-19T12:49:41.559Z,1.08
2023-01-19T12:52:23.923Z,1.05
2023-01-19T12:55:07.746Z,1.38
2023-01-19T12:57:46.354Z,1.48
2023-01-19T13:00:21.882Z,1.27
2023-01-19T13:02:54.151Z,1.10
2023-01-19T13:05:32.966Z,1.33
2023-01-19T13:08:02.975Z,1.40
2023-01-19T13:11:00.714Z,1.50
2023-01-19T13:13:37.303Z,1.40
2023-01-19T13:16:19.276Z,2.25
2023-01-19T13:18:48.844Z,1.98
2023-01-19T13:21:44.667Z,1.60
2023-01-19T13:24:11.383Z,1.70
2023-01-19T13:26:52.766Z,2.08
2023-01-19T13:29:34.488Z,2.30
2023-01-19T13:32:06.727Z,2.28
2023-01-19T13:34:42.492Z,1.98
2023-01-19T13:37:19.024Z,2.25
2023-01-19T13:39:50.023Z,2.17
2023-01-19T13:42:27.808Z,2.10
2023-01-19T13:44:58.931Z,1.70
2023-01-19T13:47:34.312Z,1.90
2023-01-19T13:50:01.411Z,2.00
2023-01-19T13:52:29.233Z,1.85
2023-01-19T13:55:04.548Z,2.58
2023-01-19T13:57:42.905Z,2.03
2023-01-19T14:00:11.808Z,2.17
2023-01-19T14:02:40.335Z,1.95
2023-01-19T14:05:15.345Z,2.10
2023-01-19T14:07:42.247Z,2.25
2023-01-19T14:10:14.455Z,2.33
2023-01-19T14:12:51.315Z,2.30
2023-01-19T14:18:23.395Z,3.00
2023-01-19T14:20:58.840Z,2.05
2023-01-19T14:23:47.726Z,2.25
2023-01-19T14:26:42.974Z,2.28
2023-01-19T14:29:27.712Z,2.53
2023-01-19T14:32:00.170Z,2.45
2023-01-19T14:34:38.963Z,2.58
2023-01-19T14:37:15.552Z,2.65
2023-01-19T14:39:46.408Z,2.17
2023-01-19T14:42:18.866Z,3.88
2023-01-19T14:44:48.848Z,1.90
2023-01-19T14:47:43.053Z,1.60
2023-01-19T14:51:01.389Z,2.25
2023-01-19T14:53:29.931Z,2.05
2023-01-19T14:56:02.833Z,2.17
2023-01-19T14:58:32.144Z,2.08
2023-01-19T15:00:59.373Z,1.88
2023-01-19T15:03:42.642Z,2.15
2023-01-19T15:06:21.186Z,2.35
2023-01-19T15:08:50.042Z,2.33
2023-01-19T15:11:31.017Z,2.03
2023-01-19T15:13:58.993Z,2.60
2023-01-19T15:16:27.669Z,2.30
2023-01-19T15:18:54.680Z,2.10
2023-01-19T15:21:28.887Z,2.13
2023-01-19T15:23:55.686Z,2.33
2023-01-19T15:26:25.248Z,2.67
2023-01-19T15:28:52.728Z,2.05
2023-01-19T15:31:22.601Z,2.58
2023-01-19T15:33:49.795Z,2.17
2023-01-19T15:36:21.446Z,2.00
2023-01-19T15:38:51.640Z,2.28
2023-01-19T15:41:27.392Z,2.72
2023-01-19T15:43:54.082Z,2.25
2023-01-19T15:46:21.473Z,2.78
2023-01-19T15:48:51.631Z,3.08
2023-01-19T15:51:20.576Z,3.50
2023-01-19T15:53:48.071Z,2.72
2023-01-19T15:56:16.460Z,2.17
2023-01-19T15:58:43.190Z,1.90
2023-01-19T16:01:18.231Z,2.03
2023-01-19T16:03:45.541Z,3.25
2023-01-19T16:06:13.231Z,3.28
2023-01-19T16:08:40.042Z,3.35
2023-01-19T16:11:09.059Z,2.50
2023-01-19T16:13:35.596Z,2.40
2023-01-19T16:16:08.099Z,4.35
2023-01-19T16:18:34.663Z,4.53
2023-01-19T16:21:01.403Z,4.35
2023-01-19T16:23:27.881Z,4.75
2023-01-19T16:25:59.942Z,4.80
2023-01-19T16:28:27.263Z,3.85
2023-01-19T16:30:54.137Z,4.47
2023-01-19T16:33:20.731Z,4.35
2023-01-19T16:35:47.396Z,4.22
2023-01-19T16:38:28.973Z,4.07
2023-01-19T16:40:55.659Z,4.15
2023-01-19T16:43:22.264Z,5.45
2023-01-19T16:46:00.733Z,5.13
2023-01-19T16:48:28.112Z,4.47
2023-01-19T16:51:05.892Z,4.18
2023-01-19T16:53:37.112Z,4.40
2023-01-19T16:56:08.500Z,4.88
2023-01-19T16:58:37.508Z,4.70
2023-01-19T17:01:17.302Z,4.10
2023-01-19T17:03:45.570Z,3.70
2023-01-19T17:06:14.818Z,4.13
2023-01-19T17:08:41.609Z,4.07
2023-01-19T17:11:20.886Z,4.07
2023-01-19T17:13:54.533Z,3.67
2023-01-19T17:16:22.085Z,3.40
2023-01-19T17:18:48.628Z,3.58
2023-01-19T17:21:19.339Z,3.63
2023-01-19T17:23:48.112Z,2.92
2023-01-19T17:26:16.044Z,3.30
2023-01-19T17:28:43.287Z,3.72
2023-01-19T17:31:12.788Z,4.45
2023-01-19T17:33:39.940Z,4.35
2023-01-19T17:36:09.699Z,3.65
2023-01-19T17:38:36.971Z,3.78
2023-01-19T17:41:12.905Z,3.80
2023-01-19T17:43:39.684Z,3.42
2023-01-19T17:46:06.235Z,3.38
2023-01-19T17:48:32.828Z,3.63
2023-01-19T17:51:07.452Z,3.78
2023-01-19T17:53:34.107Z,3.42
2023-01-19T17:56:09.395Z,3.85
2023-01-19T17:58:35.928Z,3.90
2023-01-19T18:01:11.017Z,4.10
2023-01-19T18:03:37.813Z,4.68
2023-01-19T18:06:04.597Z,4.95
2023-01-19T18:08:32.526Z,4.60
2023-01-19T18:11:00.970Z,5.05
2023-01-19T18:13:28.463Z,4.15
2023-01-19T18:16:02.732Z,4.50
2023-01-19T18:18:29.662Z,5.00
2023-01-19T18:21:07.951Z,4.43
2023-01-19T18:23:35.300Z,5.22
2023-01-19T18:26:07.081Z,4.70
2023-01-19T18:28:33.633Z,4.72
2023-01-19T18:31:00.623Z,5.93
2023-01-19T18:33:27.864Z,4.80
2023-01-19T18:35:54.907Z,4.95
2023-01-19T18:38:21.887Z,5.97
2023-01-19T18:40:48.472Z,6.07
2023-01-19T18:43:15.182Z,5.90
2023-01-19T18:45:42.123Z,5.53
2023-01-19T18:48:09.528Z,6.32
2023-01-19T18:50:37.679Z,5.88
2023-01-19T18:53:04.198Z,6.30
2023-01-19T18:55:30.777Z,5.90
2023-01-19T18:57:57.309Z,5.88
2023-01-19T19:00:23.783Z,8.23
2023-01-19T19:02:50.388Z,5.85
2023-01-19T19:05:16.901Z,6.22
2023-01-19T19:07:43.385Z,5.70
2023-01-19T19:10:10.191Z,5.43
2023-01-19T19:12:36.791Z,8.65
2023-01-19T19:15:03.595Z,12.35
2023-01-19T19:17:30.142Z,13.88
2023-01-19T19:19:56.585Z,9.07
2023-01-19T19:22:25.435Z,5.07
2023-01-19T19:24:52.317Z,5.70
2023-01-19T19:27:18.828Z,5.60
2023-01-19T19:29:48.877Z,5.57
2023-01-19T19:32:20.429Z,5.75
2023-01-19T19:34:52.863Z,6.07
2023-01-19T19:37:20.091Z,5.55
2023-01-19T19:39:47.714Z,4.95
2023-01-19T19:42:14.231Z,5.20
2023-01-19T19:44:40.747Z,5.95
2023-01-19T19:47:07.582Z,5.78
2023-01-19T19:49:34.174Z,5.85
2023-01-19T19:52:00.699Z,5.78
2023-01-19T19:54:27.186Z,6.15
2023-01-19T19:56:53.776Z,5.70
2023-01-19T19:59:20.279Z,6.13
2023-01-19T20:01:47.177Z,6.15
2023-01-19T20:04:14.058Z,7.07
2023-01-19T20:06:44.526Z,6.30
2023-01-19T20:09:15.708Z,6.50
2023-01-19T20:11:44.633Z,6.57
2023-01-19T20:14:13.094Z,6.25
2023-01-19T20:16:40.758Z,6.50
2023-01-19T20:19:07.872Z,6.63
2023-01-19T20:21:40.007Z,7.20
2023-01-19T20:24:19.007Z,8.07
2023-01-19T20:26:48.576Z,5.78
2023-01-19T20:29:15.281Z,5.93
2023-01-19T20:31:56.233Z,6.97
2023-01-19T20:34:28.074Z,6.30
2023-01-19T20:36:54.940Z,6.65
2023-01-19T20:39:23.271Z,6.53
2023-01-19T20:41:51.481Z,7.47
2023-01-19T20:44:27.113Z,6.63
2023-01-19T20:46:54.999Z,6.78
2023-01-19T20:49:21.556Z,7.07
2023-01-19T20:51:48.416Z,6.88
2023-01-19T20:54:17.273Z,6.85
2023-01-19T20:56:44.130Z,6.55
2023-01-19T20:59:11.677Z,6.80
2023-01-19T21:01:39.291Z,6.63
2023-01-19T21:04:06.145Z,6.95
2023-01-19T21:06:33.003Z,7.60
2023-01-19T21:08:59.499Z,7.53
2023-01-19T21:11:26.487Z,7.07
2023-01-19T21:13:56.033Z,7.32
2023-01-19T21:16:24.472Z,7.75
2023-01-19T21:18:51.524Z,8.70
2023-01-19T21:21:29.850Z,9.75
2023-01-19T21:23:58.611Z,9.07
2023-01-19T21:26:25.279Z,7.30
2023-01-19T21:28:51.814Z,7.63
2023-01-19T21:31:18.582Z,7.78
2023-01-19T21:33:45.410Z,8.48
2023-01-19T21:36:12.018Z,8.00
2023-01-19T21:38:39.309Z,7.78
2023-01-19T21:41:08.522Z,10.25
2023-01-19T21:43:36.782Z,8.27
2023-01-19T21:46:34.003Z,11.10
2023-01-19T21:49:02.641Z,10.15
2023-01-19T21:51:33.302Z,10.93
2023-01-19T21:54:05.843Z,8.23
2023-01-19T21:56:33.250Z,7.00
2023-01-19T21:59:04.264Z,9.95
2023-01-19T22:01:32.807Z,8.98
2023-01-19T22:03:59.514Z,11.52
2023-01-19T22:06:26.971Z,7.90
2023-01-19T22:08:54.541Z,8.85
2023-01-19T22:11:21.817Z,8.18
2023-01-19T22:13:48.593Z,7.65
2023-01-19T22:16:18.283Z,9.05
2023-01-19T22:18:46.694Z,8.63
2023-01-19T22:21:15.692Z,8.32
2023-01-19T22:23:43.041Z,8.00
2023-01-19T22:26:11.093Z,8.55
2023-01-19T22:28:38.119Z,7.47
2023-01-19T22:31:13.169Z,8.38
2023-01-19T22:33:43.023Z,9.18
2023-01-19T22:36:22.585Z,8.82
2023-01-19T22:38:57.790Z,8.10
2023-01-19T22:41:25.419Z,8.05
2023-01-19T22:43:55.112Z,8.68
2023-01-19T22:46:24.060Z,8.07
2023-01-19T22:48:50.923Z,8.55
2023-01-19T22:51:18.411Z,8.55
2023-01-19T22:53:45.274Z,8.77
2023-01-19T22:56:23.284Z,8.60
2023-01-19T22:58:50.465Z,9.10
2023-01-19T23:01:22.498Z,8.35
2023-01-19T23:03:49.877Z,8.30
2023-01-19T23:06:24.517Z,8.57
2023-01-19T23:08:51.493Z,8.68
2023-01-19T23:11:20.434Z,8.43
2023-01-19T23:13:47.198Z,8.88
2023-01-19T23:16:14.399Z,8.85
2023-01-19T23:18:42.069Z,8.60
2023-01-19T23:21:11.114Z,8.52
2023-01-19T23:23:37.962Z,8.75
2023-01-19T23:26:08.574Z,8.98
2023-01-19T23:28:36.624Z,9.05
2023-01-19T23:31:16.710Z,8.57
2023-01-19T23:33:44.217Z,8.48
2023-01-19T23:36:12.435Z,9.85
2023-01-19T23:38:39.283Z,9.45
2023-01-19T23:41:05.832Z,9.40
2023-01-19T23:43:32.482Z,9.82
2023-01-19T23:46:03.618Z,9.48
2023-01-19T23:48:30.209Z,9.80
2023-01-19T23:50:56.789Z,9.00
2023-01-19T23:53:23.373Z,9.35
2023-01-19T23:55:49.875Z,9.90
2023-01-19T23:58:16.296Z,8.38
